Antigo, Wisconsin
Current Conditions -  °F | °C
As of 10:35 PM on Sunday 21 Dec 2014 (Local Time) from KAIG Reporting Station
Light Snow Light Snow  
Wind Chill: 22°   Ceiling: 500
Heat Index: 31°   Visibility: 2.5mi
Dew Point: 31°   Wind: 13mph
Humidity: 99%   Direction: 170°S
Pressure: 29.88"   Gusts: 18mph
Location:  45.14°N, 89.15°W
Report Text: KAIG 220435Z AUTO 17011G16KT 2 1/2SM -SN OVC005 00/00 A2988 RMK AO2 T10031005
Loading
Personal Weather Stations






























Interactive Weather Map New forecast layout! Learn more

10-Day Weather Forecast

Advertisements
Track Severe Weather on mobile